createdAt,value
2023-05-22T00:02:11.606Z,39.30
2023-05-22T00:04:38.511Z,37.60
2023-05-22T00:07:08.364Z,32.00
2023-05-22T00:09:43.993Z,37.13
2023-05-22T00:12:10.769Z,36.15
2023-05-22T00:14:41.576Z,31.33
2023-05-22T00:17:11.295Z,33.00
2023-05-22T00:19:41.263Z,32.47
2023-05-22T00:22:16.751Z,30.90
2023-05-22T00:24:43.790Z,30.83
2023-05-22T00:27:13.507Z,35.95
2023-05-22T00:29:46.129Z,36.63
2023-05-22T00:32:21.874Z,35.65
2023-05-22T00:34:51.720Z,31.87
2023-05-22T00:37:29.879Z,31.58
2023-05-22T00:40:02.390Z,33.60
2023-05-22T00:42:44.754Z,34.55
2023-05-22T00:45:20.820Z,30.90
2023-05-22T00:47:53.469Z,34.50
2023-05-22T00:50:27.761Z,34.63
2023-05-22T00:53:00.266Z,36.20
2023-05-22T00:55:33.393Z,35.47
2023-05-22T00:58:02.586Z,33.65
2023-05-22T01:00:40.569Z,36.40
2023-05-22T01:03:14.640Z,37.97
2023-05-22T01:05:56.850Z,36.65
2023-05-22T01:08:23.970Z,35.40
2023-05-22T01:11:30.727Z,35.65
2023-05-22T01:14:28.612Z,34.23
2023-05-22T01:20:38.120Z,35.15
2023-05-22T01:30:47.552Z,35.17
2023-05-22T01:33:24.387Z,36.13
2023-05-22T01:36:08.633Z,36.00
2023-05-22T01:38:36.049Z,33.40
2023-05-22T01:41:03.543Z,33.90
2023-05-22T01:43:30.654Z,33.53
2023-05-22T01:46:04.861Z,38.10
2023-05-22T01:48:43.649Z,38.72
2023-05-22T01:51:19.134Z,31.38
2023-05-22T01:54:06.249Z,36.97
2023-05-22T01:56:51.079Z,38.60
2023-05-22T01:59:34.293Z,36.65
2023-05-22T02:02:06.222Z,39.72
2023-05-22T02:04:38.540Z,43.60
2023-05-22T02:07:14.914Z,35.55
2023-05-22T02:12:34.718Z,32.50
2023-05-22T02:15:13.464Z,35.95
2023-05-22T02:17:40.982Z,35.92
2023-05-22T02:22:51.643Z,34.93
2023-05-22T02:25:24.337Z,32.70
2023-05-22T02:28:03.173Z,36.50
2023-05-22T02:30:32.831Z,31.70
2023-05-22T02:33:05.407Z,39.90
2023-05-22T02:35:57.445Z,40.33
2023-05-22T02:38:32.710Z,41.92
2023-05-22T02:43:39.887Z,34.72
2023-05-22T02:46:06.680Z,33.13
2023-05-22T02:48:45.483Z,32.00
2023-05-22T02:51:24.143Z,42.50
2023-05-22T02:53:50.989Z,37.70
2023-05-22T02:56:19.728Z,39.28
2023-05-22T02:58:46.464Z,40.65
2023-05-22T03:01:13.249Z,42.13
2023-05-22T03:03:46.133Z,36.25
2023-05-22T03:06:15.942Z,38.08
2023-05-22T03:08:42.888Z,42.45
2023-05-22T03:11:10.001Z,38.65
2023-05-22T03:13:42.584Z,33.30
2023-05-22T03:16:15.218Z,38.50
2023-05-22T03:18:44.863Z,38.63
2023-05-22T03:21:20.197Z,40.38
2023-05-22T03:23:53.195Z,38.38
2023-05-22T03:26:23.271Z,38.93
2023-05-22T03:28:58.400Z,38.75
2023-05-22T03:31:33.493Z,35.20
2023-05-22T03:34:01.057Z,31.63
2023-05-22T03:36:34.514Z,40.85
2023-05-22T03:39:10.254Z,40.00
2023-05-22T03:41:42.394Z,36.22
2023-05-22T03:44:15.064Z,36.60
2023-05-22T03:46:44.624Z,42.22
2023-05-22T03:49:23.494Z,34.60
2023-05-22T03:51:55.414Z,34.37
2023-05-22T03:54:24.371Z,32.25
2023-05-22T03:57:03.398Z,34.92
2023-05-22T03:59:42.230Z,35.13
2023-05-22T04:02:11.198Z,38.83
2023-05-22T04:04:40.206Z,38.33
2023-05-22T04:07:22.072Z,36.40
2023-05-22T04:09:51.691Z,39.78
2023-05-22T04:12:24.451Z,42.97
2023-05-22T04:15:00.233Z,40.92
2023-05-22T04:17:33.326Z,41.80
2023-05-22T04:20:03.033Z,42.25
2023-05-22T04:22:34.696Z,44.05
2023-05-22T04:25:01.439Z,46.40
2023-05-22T04:27:34.042Z,39.67
2023-05-22T04:30:04.106Z,44.47
2023-05-22T04:32:39.114Z,39.47
2023-05-22T04:41:01.163Z,34.20
2023-05-22T04:43:39.434Z,47.97
2023-05-22T04:46:21.610Z,37.78
2023-05-22T04:48:57.674Z,34.55
2023-05-22T04:51:36.536Z,34.25
2023-05-22T04:54:12.160Z,36.83
2023-05-22T04:56:51.071Z,36.80
2023-05-22T04:59:30.547Z,30.45
2023-05-22T05:02:06.910Z,36.13
2023-05-22T05:04:42.376Z,39.05
2023-05-22T05:07:11.617Z,36.67
2023-05-22T05:09:47.438Z,35.50
2023-05-22T05:12:29.232Z,40.20
2023-05-22T05:15:08.041Z,37.90
2023-05-22T05:17:43.949Z,38.97
2023-05-22T05:20:13.592Z,40.13
2023-05-22T05:22:49.191Z,39.30
2023-05-22T05:29:00.637Z,38.60
2023-05-22T05:35:10.013Z,36.08
2023-05-22T05:41:17.713Z,36.03
2023-05-22T05:43:55.849Z,40.10
2023-05-22T05:46:25.881Z,39.70
2023-05-22T05:48:58.616Z,40.53
2023-05-22T05:51:56.584Z,35.77
2023-05-22T05:57:31.564Z,40.65
2023-05-22T06:00:57.204Z,35.72
2023-05-22T06:04:05.080Z,35.65
2023-05-22T06:06:32.236Z,36.43
2023-05-22T06:09:03.725Z,36.90
2023-05-22T06:11:30.679Z,33.58
2023-05-22T06:14:05.774Z,34.33
2023-05-22T06:20:05.564Z,34.70
2023-05-22T06:22:38.025Z,32.40
2023-05-22T06:25:05.385Z,36.83
2023-05-22T06:27:36.457Z,32.80
2023-05-22T06:33:38.972Z,32.57
2023-05-22T06:36:08.800Z,31.90
2023-05-22T06:44:39.875Z,32.33
2023-05-22T06:53:18.679Z,34.58
2023-05-22T07:03:45.053Z,35.85
2023-05-22T07:06:14.784Z,31.40
2023-05-22T07:08:47.924Z,32.92
2023-05-22T07:11:20.351Z,33.15
2023-05-22T07:13:47.192Z,34.43
2023-05-22T07:16:17.403Z,33.22
2023-05-22T07:18:49.747Z,31.25
2023-05-22T07:21:19.118Z,34.50
2023-05-22T07:34:22.255Z,30.77
2023-05-22T07:36:49.823Z,30.67
2023-05-22T07:39:24.010Z,26.02
2023-05-22T07:41:56.936Z,32.17
2023-05-22T07:44:24.364Z,27.92
2023-05-22T07:46:57.116Z,30.65
2023-05-22T07:49:24.549Z,29.58
2023-05-22T07:51:57.258Z,30.70
2023-05-22T07:54:26.371Z,25.93
2023-05-22T07:56:56.113Z,24.65
2023-05-22T07:59:25.972Z,28.98
2023-05-22T08:01:56.599Z,25.77
2023-05-22T08:04:27.949Z,29.13
2023-05-22T08:06:54.857Z,27.33
2023-05-22T08:09:29.969Z,29.88
2023-05-22T08:12:03.325Z,25.83
2023-05-22T08:15:05.385Z,29.33
2023-05-22T08:20:11.531Z,31.83
2023-05-22T08:22:49.879Z,25.20
2023-05-22T08:25:22.693Z,24.30
2023-05-22T08:28:34.057Z,28.80
2023-05-22T08:31:34.214Z,26.35
2023-05-22T08:36:47.518Z,28.65
2023-05-22T08:42:58.860Z,24.08
2023-05-22T08:45:37.126Z,25.50
2023-05-22T08:50:52.938Z,26.92
2023-05-22T08:53:28.472Z,23.90
2023-05-22T08:56:01.974Z,32.63
2023-05-22T09:02:00.067Z,31.77
2023-05-22T09:04:29.325Z,25.45
2023-05-22T09:06:58.871Z,29.30
2023-05-22T09:09:28.288Z,27.58
2023-05-22T09:12:00.460Z,31.83
2023-05-22T09:18:07.277Z,27.92
2023-05-22T09:20:39.905Z,30.17
2023-05-22T09:23:13.423Z,29.17
2023-05-22T09:25:42.472Z,27.63
2023-05-22T09:28:12.147Z,29.33
2023-05-22T09:30:42.283Z,24.52
2023-05-22T09:33:12.719Z,24.90
2023-05-22T09:35:51.621Z,27.23
2023-05-22T09:38:29.799Z,28.77
2023-05-22T09:41:00.719Z,27.88
2023-05-22T09:43:33.996Z,23.08
2023-05-22T09:46:11.666Z,22.90
2023-05-22T09:48:43.610Z,26.65
2023-05-22T09:51:22.845Z,23.13
2023-05-22T09:53:54.456Z,26.23
2023-05-22T09:56:37.999Z,30.35
2023-05-22T09:59:28.932Z,20.43
2023-05-22T10:05:01.020Z,23.60
2023-05-22T10:07:36.964Z,21.42
2023-05-22T10:10:25.144Z,21.60
2023-05-22T10:13:01.976Z,24.63
2023-05-22T10:15:35.735Z,21.80
2023-05-22T10:18:02.938Z,25.08
2023-05-22T10:20:35.732Z,19.98
2023-05-22T10:23:13.985Z,24.63
2023-05-22T10:25:53.646Z,19.60
2023-05-22T10:28:45.104Z,20.33
2023-05-22T10:34:45.479Z,19.92
2023-05-22T10:37:37.124Z,22.23
2023-05-22T10:40:24.802Z,22.27
2023-05-22T10:42:51.508Z,18.13
2023-05-22T10:45:30.335Z,20.35
2023-05-22T10:48:21.469Z,20.60
2023-05-22T10:50:54.640Z,22.33
2023-05-22T10:53:32.394Z,24.80
2023-05-22T10:56:18.105Z,20.25
2023-05-22T10:58:59.730Z,21.63
2023-05-22T11:01:44.143Z,23.27
2023-05-22T11:04:26.333Z,24.45
2023-05-22T11:07:04.379Z,26.70
2023-05-22T11:09:44.687Z,23.65
2023-05-22T11:15:09.800Z,21.85
2023-05-22T11:17:39.788Z,22.77
2023-05-22T11:22:58.953Z,20.17
2023-05-22T11:25:36.414Z,22.17
2023-05-22T11:30:52.289Z,21.20
2023-05-22T11:33:41.007Z,20.70
2023-05-22T11:36:13.404Z,24.55
2023-05-22T11:38:42.861Z,21.70
2023-05-22T11:41:15.584Z,22.70
2023-05-22T11:43:45.859Z,19.98
2023-05-22T11:46:24.130Z,20.40
2023-05-22T11:48:53.970Z,20.10
2023-05-22T11:53:57.224Z,20.00
2023-05-22T11:59:31.582Z,17.33
2023-05-22T12:02:07.972Z,16.98
2023-05-22T12:04:39.817Z,17.67
2023-05-22T12:07:10.413Z,22.13
2023-05-22T12:09:43.841Z,17.15
2023-05-22T12:12:10.987Z,19.02
2023-05-22T12:14:45.236Z,20.08
2023-05-22T12:17:16.328Z,15.43
2023-05-22T12:19:47.017Z,15.05
2023-05-22T12:22:16.020Z,21.48
2023-05-22T12:24:45.884Z,24.83
2023-05-22T12:27:21.790Z,22.00
2023-05-22T12:30:25.687Z,22.60
2023-05-22T12:32:59.333Z,21.48
2023-05-22T12:35:29.929Z,20.55
2023-05-22T12:37:59.666Z,17.80
2023-05-22T12:40:28.902Z,24.05
2023-05-22T12:43:00.604Z,21.90
2023-05-22T12:45:27.480Z,19.40
2023-05-22T12:48:06.887Z,24.30
2023-05-22T12:51:27.036Z,23.10
2023-05-22T12:53:53.859Z,23.63
2023-05-22T12:56:56.764Z,25.70
2023-05-22T12:59:25.966Z,26.15
2023-05-22T13:01:57.986Z,24.20
2023-05-22T13:04:29.677Z,24.90
2023-05-22T13:11:01.036Z,24.10
2023-05-22T13:13:30.807Z,22.85
2023-05-22T13:18:43.108Z,21.17
2023-05-22T13:21:10.150Z,21.67
2023-05-22T13:23:40.344Z,22.47
2023-05-22T13:26:07.332Z,17.95
2023-05-22T13:28:42.546Z,18.08
2023-05-22T13:31:10.290Z,24.58
2023-05-22T13:33:37.400Z,22.52
2023-05-22T13:36:19.290Z,18.37
2023-05-22T13:39:06.661Z,23.13
2023-05-22T13:41:49.074Z,20.80
2023-05-22T13:44:24.947Z,15.20
2023-05-22T13:47:00.291Z,25.00
2023-05-22T13:49:32.372Z,17.83
2023-05-22T13:52:17.688Z,14.48
2023-05-22T13:54:47.572Z,14.20
2023-05-22T13:57:16.871Z,12.35
2023-05-22T13:59:56.422Z,10.50
2023-05-22T14:05:09.233Z,14.18
2023-05-22T14:10:52.669Z,13.98
2023-05-22T14:22:22.915Z,11.38
2023-05-22T14:28:31.138Z,10.35
2023-05-22T14:42:31.323Z,11.48
2023-05-22T14:44:58.283Z,17.07
2023-05-22T14:47:37.237Z,16.70
2023-05-22T14:52:58.717Z,12.48
2023-05-22T14:55:28.632Z,13.95
2023-05-22T14:57:58.827Z,16.53
2023-05-22T16:19:13.043Z,10.23
2023-05-22T17:55:57.095Z,7.40
2023-05-22T17:58:24.180Z,8.53
2023-05-22T18:04:38.600Z,7.53
2023-05-22T18:15:18.616Z,7.35
2023-05-22T18:17:45.642Z,8.98
2023-05-22T18:25:35.163Z,9.53
2023-05-22T18:28:10.103Z,6.72
2023-05-22T18:30:47.207Z,9.43
2023-05-22T18:33:32.591Z,7.00
2023-05-22T18:36:12.540Z,7.43
2023-05-22T18:41:46.560Z,8.73
2023-05-22T18:44:13.247Z,7.43
2023-05-22T18:46:43.082Z,6.82
2023-05-22T18:49:09.937Z,11.90
2023-05-22T18:51:41.387Z,9.00
2023-05-22T18:54:08.197Z,11.32
2023-05-22T19:10:28.362Z,14.45
2023-05-22T19:13:04.196Z,14.32
2023-05-22T19:15:39.478Z,18.38
2023-05-22T19:19:05.425Z,17.50
